CPX964 Details

Departure: Joint Base McGuire Dix Lakehurst (KWRI)
Arrival: Chicago/Rockford International Airport (KRFD)
Route: MXE4 AIR APE J178 FWA HOBAR J60 JOT V171 RFD
Notes: EMPTY | NON-REVENUE REPOSITIONING LEG


Current Weather Information
KWRI 232156Z AUTO 20006KT 10SM CLR 20/20 A2993 RMK AO2 SLP135 T02010201 $
KRFD 232154Z 26012G19KT 10SM FEW250 23/12 A3006 RMK AO2 SLP179 T02280117